Time;durP1;ratioP1;P1;durP2;ratioP2;P2;SDS_P1;SDS_P2;PMS_P1;PMS_P2;Temp;Humidity;BMP_temperature;BMP_pressure;BME280_temperature;BME280_humidity;BME280_pressure;Samples;Min_cycle;Max_cycle;Signal;HPM_P1;HPM_P2
2021/06/21 00:00:17;;;;;;;13.30;7.63;;;;;;;24.28;65.03;99571.63;5135342;27;20054;-74
2021/06/21 00:02:45;;;;;;;10.82;7.55;;;;;;;24.38;64.64;99569.41;5135355;27;20377;-73
2021/06/21 00:05:16;;;;;;;11.88;7.38;;;;;;;24.48;64.29;99577.25;5135319;27;20049;-73
2021/06/21 00:07:46;;;;;;;12.00;7.63;;;;;;;24.47;64.48;99570.97;5135466;27;20126;-73
2021/06/21 00:10:17;;;;;;;10.68;6.80;;;;;;;24.51;64.24;99575.00;5135034;27;20066;-73
2021/06/21 00:12:46;;;;;;;9.32;7.45;;;;;;;24.65;63.67;99575.91;5135236;27;20091;-73
2021/06/21 00:15:18;;;;;;;10.85;7.60;;;;;;;24.71;63.42;99583.31;5135165;27;20468;-74
2021/06/21 00:17:48;;;;;;;8.93;7.00;;;;;;;24.69;63.58;99579.06;5135138;27;20039;-73
2021/06/21 00:20:18;;;;;;;11.23;7.82;;;;;;;24.50;64.08;99573.28;5134666;27;20492;-73
2021/06/21 00:22:52;;;;;;;10.85;7.07;;;;;;;24.38;64.74;99572.16;5134765;27;20400;-74
2021/06/21 00:25:22;;;;;;;10.88;7.18;;;;;;;24.30;65.05;99569.53;5116332;27;20483;-76
2021/06/21 00:27:52;;;;;;;10.82;7.50;;;;;;;24.45;64.46;99572.22;5116684;27;20075;-72
2021/06/21 00:30:21;;;;;;;11.40;7.60;;;;;;;24.42;64.62;99569.88;5134632;27;20400;-75
2021/06/21 00:32:50;;;;;;;10.90;7.72;;;;;;;24.48;64.56;99577.25;5134891;27;20035;-75
2021/06/21 00:35:19;;;;;;;11.77;7.65;;;;;;;24.30;65.14;99574.97;5134788;27;20046;-74
2021/06/21 00:37:48;;;;;;;10.85;8.10;;;;;;;24.30;65.26;99574.97;5134401;27;20433;-75
2021/06/21 00:40:19;;;;;;;11.02;8.00;;;;;;;24.33;65.02;99571.91;5134640;27;20046;-74
2021/06/21 00:42:49;;;;;;;9.98;8.00;;;;;;;24.29;65.14;99565.13;5134735;27;20100;-75
2021/06/21 00:45:20;;;;;;;9.88;8.02;;;;;;;24.22;65.55;99564.22;5134560;27;20130;-76
2021/06/21 00:47:50;;;;;;;11.45;8.00;;;;;;;23.95;66.65;99555.00;5116199;27;20062;-76
2021/06/21 00:50:19;;;;;;;10.05;8.18;;;;;;;23.81;67.46;99547.72;5134100;27;20122;-74
2021/06/21 00:52:49;;;;;;;10.82;8.15;;;;;;;23.87;67.16;99553.22;5134441;27;20142;-74
2021/06/21 00:55:20;;;;;;;11.20;8.30;;;;;;;23.91;66.86;99554.53;5134358;27;20136;-75
2021/06/21 00:57:49;;;;;;;11.93;8.50;;;;;;;23.74;67.83;99553.13;5134541;27;20050;-75
2021/06/21 01:00:20;;;;;;;12.60;8.50;;;;;;;23.63;68.24;99550.88;5134060;27;20067;-75
2021/06/21 01:02:48;;;;;;;10.20;7.93;;;;;;;23.61;68.37;99552.97;5134241;27;20039;-74
2021/06/21 01:05:19;;;;;;;13.00;8.75;;;;;;;23.63;68.45;99556.31;5133977;27;20035;-71
2021/06/21 01:07:48;;;;;;;12.10;8.80;;;;;;;23.73;68.22;99551.41;5134369;27;20043;-72
2021/06/21 01:10:22;;;;;;;11.50;8.60;;;;;;;23.82;68.11;99552.97;5134077;27;20047;-72
2021/06/21 01:13:26;;;;;;;11.75;7.97;;;;;;;23.86;67.77;99546.09;5134092;27;20035;-72
2021/06/21 01:16:04;;;;;;;10.48;7.93;;;;;;;23.92;67.35;99542.59;5133938;27;20441;-72
2021/06/21 01:18:34;;;;;;;10.82;8.70;;;;;;;23.63;68.66;99534.53;5133947;27;20114;-71
2021/06/21 01:21:21;;;;;;;11.02;9.10;;;;;;;23.53;68.99;99534.00;5133715;27;20051;-74
2021/06/21 01:24:07;;;;;;;10.45;8.27;;;;;;;23.31;70.46;99524.97;5133952;28;20050;-73
2021/06/21 01:26:43;;;;;;;11.00;8.15;;;;;;;23.18;70.92;99520.22;5133489;28;20050;-73
2021/06/21 01:29:31;;;;;;;11.90;8.30;;;;;;;23.37;70.32;99519.59;5133912;28;20096;-74
2021/06/21 01:32:09;;;;;;;9.60;7.82;;;;;;;23.64;68.50;99511.72;5133912;28;20043;-74
2021/06/21 01:34:42;;;;;;;12.45;8.75;;;;;;;23.42;69.84;99508.97;5123040;28;20142;-72
2021/06/21 01:37:14;;;;;;;10.57;8.60;;;;;;;23.48;69.49;99507.38;5136405;28;20071;-71
2021/06/21 01:39:46;;;;;;;13.40;9.95;;;;;;;23.28;70.25;99512.59;5134023;28;20381;-71
2021/06/21 01:42:17;;;;;;;11.95;8.73;;;;;;;23.24;70.39;99497.66;5134440;28;20081;-70
2021/06/21 01:44:48;;;;;;;11.45;9.10;;;;;;;23.19;70.93;99500.13;5133912;28;20468;-71
2021/06/21 01:47:17;;;;;;;12.00;9.20;;;;;;;23.15;71.47;99493.38;5134031;28;20047;-71
2021/06/21 01:49:50;;;;;;;12.75;8.90;;;;;;;23.01;71.83;99503.28;5133632;28;20035;-71
2021/06/21 01:52:20;;;;;;;12.13;8.93;;;;;;;22.96;72.25;99493.97;5133878;28;20043;-71
2021/06/21 01:54:54;;;;;;;12.65;9.35;;;;;;;22.90;72.81;99500.19;5133393;28;20096;-71
2021/06/21 01:57:25;;;;;;;12.82;9.00;;;;;;;22.87;72.96;99495.13;5133747;28;20065;-71
2021/06/21 01:59:54;;;;;;;12.48;9.25;;;;;;;22.85;73.18;99488.00;5133909;28;20096;-71
2021/06/21 02:02:24;;;;;;;13.00;9.10;;;;;;;22.81;73.14;99499.44;5133684;28;20180;-72
2021/06/21 02:04:57;;;;;;;11.82;9.05;;;;;;;22.85;72.91;99487.16;5115413;28;20050;-72
2021/06/21 02:07:27;;;;;;;12.52;8.43;;;;;;;22.85;73.34;99493.44;5133808;28;20476;-72
2021/06/21 02:09:56;;;;;;;11.85;8.82;;;;;;;22.82;73.41;99492.94;5133834;28;20040;-72
2021/06/21 02:12:27;;;;;;;10.88;8.88;;;;;;;23.12;72.15;99489.16;5133271;28;20106;-72
2021/06/21 02:14:58;;;;;;;10.80;8.30;;;;;;;23.31;71.13;99487.72;5115265;28;20138;-74
2021/06/21 02:17:30;;;;;;;14.18;8.45;;;;;;;23.10;71.95;99491.25;5133861;28;20050;-75
2021/06/21 02:20:04;;;;;;;11.27;8.38;;;;;;;23.02;72.20;99493.22;5133430;28;20496;-73
2021/06/21 02:22:33;;;;;;;14.27;9.23;;;;;;;22.85;73.01;99490.72;5133298;28;20502;-73
2021/06/21 02:25:05;;;;;;;15.48;9.13;;;;;;;22.76;73.59;99482.81;5133096;28;20457;-73
2021/06/21 02:27:36;;;;;;;12.52;9.35;;;;;;;22.88;72.93;99485.97;5132979;28;20042;-73
2021/06/21 02:30:08;;;;;;;12.38;9.13;;;;;;;22.89;72.84;99479.50;5133588;28;20062;-73
2021/06/21 02:32:37;;;;;;;11.20;9.02;;;;;;;22.76;73.42;99471.94;5133148;27;20040;-73
2021/06/21 02:35:11;;;;;;;11.25;9.38;;;;;;;22.68;73.41;99472.91;5137131;27;20480;-73
2021/06/21 02:37:40;;;;;;;12.93;9.35;;;;;;;22.74;72.29;99471.31;5136851;27;20031;-73
2021/06/21 02:40:11;;;;;;;12.25;8.88;;;;;;;22.74;72.20;99464.00;5136963;27;20118;-73
2021/06/21 02:42:40;;;;;;;11.57;8.77;;;;;;;22.79;71.47;99461.56;5136699;27;20092;-74
2021/06/21 02:45:10;;;;;;;13.45;8.60;;;;;;;22.79;72.15;99461.56;5118900;27;20039;-74
2021/06/21 02:47:39;;;;;;;11.80;9.40;;;;;;;22.78;71.88;99454.44;5118032;27;20495;-79
2021/06/21 02:50:10;;;;;;;12.27;9.77;;;;;;;22.71;72.52;99458.94;5136531;27;20071;-80
2021/06/21 02:52:50;;;;;;;11.65;9.35;;;;;;;22.66;72.66;99455.94;5118177;27;20134;-77
2021/06/21 02:55:22;;;;;;;12.85;9.40;;;;;;;22.51;73.54;99455.13;5136679;27;20047;-77
2021/06/21 02:57:59;;;;;;;13.30;9.18;;;;;;;22.39;74.41;99459.31;5136471;27;20046;-77
2021/06/21 03:00:28;;;;;;;15.70;10.45;;;;;;;22.38;74.65;99460.34;5136492;27;20120;-76
2021/06/21 03:02:59;;;;;;;14.63;9.95;;;;;;;22.61;73.42;99463.81;5136333;27;20548;-76
2021/06/21 03:05:30;;;;;;;11.93;9.45;;;;;;;22.51;73.97;99457.84;5136694;27;20053;-77
2021/06/21 03:08:01;;;;;;;11.60;9.10;;;;;;;22.71;73.18;99458.94;5136447;27;20108;-78
2021/06/21 03:10:30;;;;;;;13.82;9.70;;;;;;;22.64;73.39;99455.28;5136198;27;20039;-77
2021/06/21 03:12:59;;;;;;;12.75;9.00;;;;;;;22.56;73.54;99466.25;5136389;27;20042;-76
2021/06/21 03:15:28;;;;;;;12.60;9.45;;;;;;;22.66;73.20;99461.38;5136384;27;20453;-77
2021/06/21 03:17:58;;;;;;;11.63;9.02;;;;;;;22.87;72.16;99473.38;5136155;27;20126;-77
2021/06/21 03:20:29;;;;;;;11.70;9.57;;;;;;;22.86;72.45;99467.09;5136355;27;20388;-72
2021/06/21 03:22:59;;;;;;;10.82;9.15;;;;;;;22.95;71.87;99470.53;5118061;27;20516;-73
2021/06/21 03:25:29;;;;;;;11.98;9.55;;;;;;;23.10;71.48;99468.66;5135900;27;20039;-73
2021/06/21 03:27:59;;;;;;;11.82;9.80;;;;;;;23.02;71.42;99472.31;5135589;27;20113;-74
2021/06/21 03:30:27;;;;;;;11.18;9.23;;;;;;;22.91;72.07;99480.13;5135819;27;20035;-73
2021/06/21 03:32:56;;;;;;;12.73;9.18;;;;;;;22.99;71.92;99480.03;5135553;27;20039;-73
2021/06/21 03:35:29;;;;;;;10.38;8.85;;;;;;;23.31;70.82;99476.00;5136012;27;20043;-73
2021/06/21 03:38:09;;;;;;;12.02;8.57;;;;;;;24.32;66.75;99485.75;5135327;27;20046;-73
2021/06/21 03:40:37;;;;;;;11.93;8.60;;;;;;;25.13;63.58;99476.94;5135629;27;20039;-76
2021/06/21 03:43:06;;;;;;;10.57;8.50;;;;;;;25.71;61.12;99477.31;5117285;27;20492;-73
2021/06/21 03:45:34;;;;;;;10.85;8.38;;;;;;;26.24;59.31;99476.22;5134967;27;20100;-78
2021/06/21 03:48:02;;;;;;;11.18;8.77;;;;;;;26.52;58.10;99472.41;5135634;27;20047;-74
2021/06/21 03:50:32;;;;;;;12.43;8.32;;;;;;;26.72;57.22;99475.94;5135558;27;20069;-73
2021/06/21 03:53:03;;;;;;;10.52;7.43;;;;;;;27.24;55.22;99479.53;5135137;27;20433;-73
2021/06/21 03:55:31;;;;;;;9.13;7.93;;;;;;;27.56;54.47;99479.56;5135474;27;20468;-73
2021/06/21 03:58:01;;;;;;;9.55;7.30;;;;;;;27.69;53.81;99470.44;5134919;27;20039;-75
2021/06/21 04:00:32;;;;;;;13.25;8.10;;;;;;;27.80;53.96;99472.47;5134936;27;20047;-74
2021/06/21 04:03:00;;;;;;;11.80;8.80;;;;;;;28.32;52.77;99481.31;5135079;27;20031;-77
2021/06/21 04:05:29;;;;;;;13.50;8.15;;;;;;;29.25;49.55;99478.38;5135329;27;20039;-77
2021/06/21 04:07:59;;;;;;;9.07;7.72;;;;;;;28.99;49.88;99488.63;5134890;27;20548;-76
2021/06/21 04:10:28;;;;;;;8.85;6.72;;;;;;;29.51;48.21;99486.22;5135150;27;20065;-76
2021/06/21 04:12:56;;;;;;;9.25;6.82;;;;;;;29.42;48.46;99484.84;5134406;27;20043;-74
2021/06/21 04:15:28;;;;;;;10.52;6.97;;;;;;;29.63;47.97;99481.63;5135082;27;20075;-75
2021/06/21 04:17:57;;;;;;;8.25;6.90;;;;;;;30.17;46.65;99487.94;5134910;27;20091;-76
2021/06/21 04:20:27;;;;;;;7.93;6.70;;;;;;;29.74;47.64;99484.66;5134845;27;20088;-79
2021/06/21 04:22:56;;;;;;;10.85;7.70;;;;;;;30.34;46.28;99495.50;5134584;27;20043;-79
2021/06/21 04:25:27;;;;;;;10.77;6.93;;;;;;;30.31;45.93;99496.00;5134902;27;20460;-79
2021/06/21 04:28:01;;;;;;;11.27;7.53;;;;;;;30.54;45.21;99493.22;5134579;27;20050;-80
2021/06/21 04:30:30;;;;;;;12.55;7.68;;;;;;;30.77;44.80;99489.63;5116301;27;20051;-75
2021/06/21 04:32:59;;;;;;;10.07;7.70;;;;;;;30.47;44.88;99498.00;5134303;27;20043;-76
2021/06/21 04:35:28;;;;;;;8.73;7.10;;;;;;;30.31;44.79;99507.84;5134415;27;20400;-76
2021/06/21 04:37:57;;;;;;;9.75;7.80;;;;;;;30.32;44.78;99505.91;5134074;27;20047;-76
2021/06/21 04:40:29;;;;;;;9.55;7.45;;;;;;;30.65;44.69;99500.66;5134290;27;20443;-75
2021/06/21 04:42:58;;;;;;;11.30;7.60;;;;;;;31.15;43.38;99511.06;5134292;27;20143;-74
2021/06/21 04:45:26;;;;;;;14.25;7.88;;;;;;;30.34;45.23;99512.84;5116087;27;20492;-74
2021/06/21 04:48:01;;;;;;;11.63;7.90;;;;;;;31.12;43.72;99516.25;5134111;27;20130;-75
2021/06/21 04:50:30;;;;;;;11.43;8.32;;;;;;;31.57;42.79;99508.09;5134344;27;20512;-72
2021/06/21 04:52:59;;;;;;;9.68;6.88;;;;;;;31.81;41.56;99509.66;5134015;27;20101;-74
2021/06/21 04:55:29;;;;;;;11.05;7.55;;;;;;;32.78;40.26;99519.47;5133490;27;20121;-74
2021/06/21 04:57:58;;;;;;;9.10;6.88;;;;;;;32.78;39.36;99515.88;5133892;27;20046;-74
2021/06/21 05:00:26;;;;;;;10.80;7.45;;;;;;;32.35;39.64;99510.03;5134361;27;20039;-72
2021/06/21 05:02:54;;;;;;;8.85;7.05;;;;;;;32.80;39.18;99511.78;5115175;27;20077;-74
2021/06/21 05:05:25;;;;;;;10.48;7.18;;;;;;;33.23;38.46;99512.91;5134505;27;20047;-74
2021/06/21 05:07:57;;;;;;;9.20;6.93;;;;;;;33.28;38.49;99510.19;5134198;27;20043;-73
2021/06/21 05:10:30;;;;;;;9.43;6.72;;;;;;;33.51;37.82;99518.25;5140833;27;20053;-73
2021/06/21 05:12:58;;;;;;;10.23;7.05;;;;;;;34.37;35.89;99514.63;5151048;27;20039;-74
2021/06/21 05:15:27;;;;;;;9.13;6.55;;;;;;;33.98;36.39;99516.81;5138913;27;20453;-71
2021/06/21 05:17:55;;;;;;;8.40;5.43;;;;;;;34.19;36.20;99512.28;5133950;27;20042;-74
2021/06/21 05:20:24;;;;;;;9.48;4.88;;;;;;;34.72;34.45;99506.56;5134595;27;20460;-74
2021/06/21 05:22:53;;;;;;;6.55;4.10;;;;;;;34.92;33.87;99505.03;5133696;28;20065;-74
2021/06/21 05:25:24;;;;;;;8.52;4.47;;;;;;;35.14;33.29;99508.47;5134301;28;20038;-78
2021/06/21 05:27:54;;;;;;;8.25;4.47;;;;;;;34.93;32.92;99507.53;5133918;28;20047;-75
2021/06/21 05:30:23;;;;;;;9.48;4.88;;;;;;;35.49;32.61;99515.25;5133972;28;20067;-77
2021/06/21 05:32:53;;;;;;;9.68;4.15;;;;;;;35.25;32.02;99514.88;5133565;28;20043;-77
2021/06/21 05:35:22;;;;;;;7.63;4.30;;;;;;;35.21;32.86;99509.03;5133892;28;20035;-79
2021/06/21 05:37:51;;;;;;;8.95;3.90;;;;;;;35.64;31.51;99511.69;5133249;28;20039;-81
2021/06/21 05:40:19;;;;;;;8.02;4.00;;;;;;;34.89;32.72;99517.50;5133971;28;20118;-80
2021/06/21 05:42:50;;;;;;;7.47;3.58;;;;;;;35.75;31.20;99516.97;5133491;28;20091;-77
2021/06/21 05:45:20;;;;;;;6.50;3.90;;;;;;;34.67;33.36;99514.84;5133855;28;20043;-73
2021/06/21 05:47:49;;;;;;;7.30;3.70;;;;;;;35.50;32.07;99514.13;5133353;28;20050;-77
2021/06/21 05:50:17;;;;;;;6.53;3.70;;;;;;;35.95;31.45;99518.13;5133398;28;20047;-80
2021/06/21 05:52:49;;;;;;;8.13;3.78;;;;;;;35.51;31.67;99515.81;5133448;28;20414;-79
2021/06/21 05:55:18;;;;;;;7.40;4.03;;;;;;;36.09;30.48;99513.69;5133837;28;20480;-74
2021/06/21 05:57:48;;;;;;;8.82;3.60;;;;;;;36.08;29.91;99523.13;5132994;28;20104;-75
2021/06/21 06:00:17;;;;;;;7.05;3.50;;;;;;;35.64;30.07;99518.06;5133690;28;20035;-72
2021/06/21 06:02:47;;;;;;;7.70;3.80;;;;;;;35.98;30.32;99512.03;5132947;28;20125;-75
2021/06/21 06:05:16;;;;;;;8.13;3.95;;;;;;;35.60;30.15;99516.94;5133608;28;20043;-71
2021/06/21 06:07:46;;;;;;;9.02;4.28;;;;;;;35.49;30.76;99524.41;5116213;27;20058;-74
2021/06/21 06:10:15;;;;;;;7.35;3.90;;;;;;;35.68;30.24;99524.72;5137636;27;20051;-74
2021/06/21 06:12:44;;;;;;;7.75;3.53;;;;;;;36.01;30.22;99530.91;5137478;27;20542;-75
2021/06/21 06:15:13;;;;;;;5.55;3.70;;;;;;;36.31;29.34;99530.91;5137527;27;20131;-74
2021/06/21 06:17:42;;;;;;;5.80;3.53;;;;;;;36.18;29.20;99525.91;5137205;27;20039;-73
2021/06/21 06:20:13;;;;;;;5.43;3.60;;;;;;;36.04;29.38;99527.56;5137413;27;20381;-72
2021/06/21 06:22:42;;;;;;;8.63;3.60;;;;;;;35.69;30.20;99531.94;5137293;27;20050;-72
2021/06/21 06:25:11;;;;;;;6.50;3.72;;;;;;;36.53;28.73;99535.34;5118327;27;20480;-73
2021/06/21 06:27:39;;;;;;;7.30;3.75;;;;;;;36.26;30.09;99535.63;5118624;27;20055;-72
2021/06/21 06:30:11;;;;;;;4.85;3.20;;;;;;;36.66;28.75;99529.19;5136746;27;20391;-72
2021/06/21 06:32:40;;;;;;;9.20;3.53;;;;;;;36.56;28.86;99526.44;5137138;27;20043;-72
2021/06/21 06:35:10;;;;;;;8.10;3.33;;;;;;;36.27;29.84;99529.78;5136689;27;20043;-71
2021/06/21 06:37:41;;;;;;;6.75;3.53;;;;;;;36.84;28.56;99525.84;5136927;27;20039;-72
2021/06/21 06:40:10;;;;;;;5.78;3.70;;;;;;;36.68;29.07;99532.56;5136951;27;20046;-71
2021/06/21 06:42:39;;;;;;;6.40;3.88;;;;;;;36.77;29.29;99530.88;5137086;27;20118;-71
2021/06/21 06:45:08;;;;;;;5.40;4.10;;;;;;;36.47;29.26;99525.34;5136738;27;20054;-72
2021/06/21 06:47:37;;;;;;;4.70;3.40;;;;;;;35.83;30.04;99524.75;5137053;27;20046;-71
2021/06/21 06:50:07;;;;;;;5.82;3.47;;;;;;;36.11;29.88;99525.38;5136694;27;20043;-72
2021/06/21 06:52:35;;;;;;;4.97;3.50;;;;;;;36.20;28.88;99526.47;5136606;27;20066;-72
2021/06/21 06:57:52;;;;;;;6.55;3.30;;;;;;;35.27;31.00;99510.72;5136465;27;20059;-72
2021/06/21 07:00:20;;;;;;;6.38;3.60;;;;;;;35.69;30.02;99506.97;5136506;27;20047;-71
2021/06/21 07:02:52;;;;;;;9.60;3.25;;;;;;;34.99;31.48;99517.53;5136531;27;20050;-72
2021/06/21 07:05:22;;;;;;;7.28;4.13;;;;;;;34.09;32.38;99508.31;5136667;27;20054;-72
2021/06/21 07:07:51;;;;;;;5.75;3.78;;;;;;;33.94;32.25;99516.47;5117532;27;20043;-71
2021/06/21 07:10:21;;;;;;;5.68;3.53;;;;;;;33.69;33.11;99524.53;5136640;27;20039;-71
2021/06/21 07:12:49;;;;;;;7.18;3.63;;;;;;;33.92;32.67;99518.69;5136630;27;20047;-71
2021/06/21 07:15:18;;;;;;;9.10;3.70;;;;;;;33.76;32.09;99525.13;5136379;27;20047;-71
2021/06/21 07:17:47;;;;;;;5.63;3.50;;;;;;;33.52;33.04;99508.84;5136159;27;20438;-71
2021/06/21 07:20:16;;;;;;;6.22;3.67;;;;;;;33.54;32.68;99509.44;5135160;27;20439;-71
2021/06/21 07:22:45;;;;;;;6.15;3.70;;;;;;;33.31;33.14;99507.78;5136262;27;20051;-71
2021/06/21 07:25:13;;;;;;;5.07;3.58;;;;;;;33.18;33.66;99512.84;5135938;27;20073;-71
2021/06/21 07:27:43;;;;;;;6.25;3.65;;;;;;;33.14;34.71;99518.06;5136245;27;20538;-71
2021/06/21 07:30:13;;;;;;;5.78;3.72;;;;;;;32.99;34.89;99512.31;5136077;27;20055;-71
2021/06/21 07:32:42;;;;;;;9.00;4.13;;;;;;;32.72;35.02;99515.84;5136198;27;20061;-71
2021/06/21 07:35:12;;;;;;;9.07;3.83;;;;;;;32.90;33.88;99517.47;5135495;27;20437;-71
2021/06/21 07:37:40;;;;;;;8.18;3.90;;;;;;;32.78;34.83;99519.47;5135746;27;20125;-72
2021/06/21 07:40:09;;;;;;;8.10;4.00;;;;;;;32.75;34.22;99509.78;5135678;27;20043;-71
2021/06/21 07:42:38;;;;;;;6.38;3.60;;;;;;;32.49;35.14;99506.91;5135603;27;20139;-71
2021/06/21 07:45:09;;;;;;;8.80;4.18;;;;;;;32.71;35.04;99510.53;5135614;27;20082;-71
2021/06/21 07:47:39;;;;;;;;;;;;;;;32.70;34.31;99506.09;5136343;27;20043;-71
2021/06/21 07:50:09;;;;;;;5.63;3.40;;;;;;;32.55;34.82;99503.16;5135458;27;19919;-72
2021/06/21 07:52:38;;;;;;;6.85;3.90;;;;;;;32.49;35.08;99501.38;5135747;27;20101;-71
2021/06/21 07:55:07;;;;;;;8.15;4.30;;;;;;;32.59;35.53;99505.13;5135349;27;20383;-72
2021/06/21 07:57:36;;;;;;;6.82;3.72;;;;;;;32.47;35.66;99501.66;5135226;27;20388;-71
2021/06/21 08:00:06;;;;;;;5.20;3.85;;;;;;;32.30;36.12;99501.66;5135274;27;20183;-71
2021/06/21 08:02:35;;;;;;;7.88;3.95;;;;;;;32.19;37.28;99494.28;5135587;27;20472;-71
2021/06/21 08:05:06;;;;;;;6.00;3.93;;;;;;;32.36;36.62;99500.66;5135246;27;20049;-71
2021/06/21 08:07:34;;;;;;;6.43;3.67;;;;;;;32.16;36.43;99495.63;5135322;27;20043;-71
2021/06/21 08:10:03;;;;;;;5.53;3.95;;;;;;;31.96;36.81;99500.81;5134792;27;20134;-71
2021/06/21 08:12:32;;;;;;;6.93;3.85;;;;;;;32.16;36.65;99489.28;5135571;27;20043;-71
2021/06/21 08:15:00;;;;;;;7.78;4.22;;;;;;;31.66;38.27;99495.56;5134828;27;20111;-71
2021/06/21 08:17:30;;;;;;;4.90;4.07;;;;;;;32.04;36.91;99488.50;5135184;27;20434;-71
2021/06/21 08:19:59;;;;;;;6.07;4.20;;;;;;;32.23;36.98;99486.34;5134920;27;20442;-72
2021/06/21 08:22:28;;;;;;;7.78;3.92;;;;;;;32.42;36.17;99499.63;5135181;27;20035;-71
2021/06/21 08:24:56;;;;;;;6.95;4.20;;;;;;;32.43;35.39;99486.69;5134657;27;20039;-74
2021/06/21 08:27:26;;;;;;;9.93;4.10;;;;;;;32.27;35.46;99485.59;5135044;27;20065;-71
2021/06/21 08:29:54;;;;;;;6.78;3.60;;;;;;;32.35;34.77;99493.47;5134722;27;20044;-71
2021/06/21 08:32:23;;;;;;;4.80;3.60;;;;;;;32.34;34.99;99485.47;5135065;27;20139;-71
2021/06/21 08:34:53;;;;;;;5.20;3.67;;;;;;;32.32;35.19;99487.59;5134742;27;20043;-71
2021/06/21 08:37:24;;;;;;;5.40;3.70;;;;;;;32.29;35.27;99486.16;5135118;27;20047;-71
2021/06/21 08:39:53;;;;;;;7.30;3.95;;;;;;;32.11;35.75;99469.88;5134909;27;20034;-71
2021/06/21 08:42:23;;;;;;;5.05;3.70;;;;;;;31.85;36.40;99463.97;5134189;27;20047;-71
2021/06/21 08:44:51;;;;;;;9.02;3.70;;;;;;;31.90;36.65;99477.81;5134639;27;20440;-71
2021/06/21 08:47:22;;;;;;;6.43;4.22;;;;;;;32.07;36.02;99469.56;5134380;27;20096;-71
2021/06/21 08:49:50;;;;;;;5.57;3.70;;;;;;;32.17;35.56;99480.75;5134832;27;20096;-71
2021/06/21 08:52:20;;;;;;;5.93;4.05;;;;;;;32.13;35.75;99478.72;5133957;27;20047;-71
2021/06/21 08:54:49;;;;;;;9.20;4.55;;;;;;;32.21;35.73;99475.56;5115984;27;20089;-72
2021/06/21 08:57:18;;;;;;;6.72;4.20;;;;;;;32.32;35.97;99471.06;5134145;27;20059;-72
2021/06/21 08:59:46;;;;;;;7.00;3.80;;;;;;;32.52;35.97;99465.81;5100189;27;20093;-71
2021/06/21 09:02:15;;;;;;;5.45;3.80;;;;;;;32.35;35.70;99465.06;5135275;27;20043;-71
2021/06/21 09:04:48;;;;;;;5.57;3.80;;;;;;;32.24;35.83;99466.78;5134385;27;20061;-71
2021/06/21 09:07:18;;;;;;;8.57;3.85;;;;;;;32.34;35.59;99469.72;5133911;27;20043;-71
2021/06/21 09:09:47;;;;;;;8.20;4.10;;;;;;;32.32;36.27;99474.66;5134256;27;20035;-71
2021/06/21 09:12:23;;;;;;;7.22;4.10;;;;;;;32.37;35.23;99469.22;5133756;27;20480;-71
2021/06/21 09:14:53;;;;;;;5.10;3.72;;;;;;;32.26;35.60;99466.53;5134282;27;20433;-71
2021/06/21 09:17:23;;;;;;;5.53;4.22;;;;;;;32.46;35.55;99461.34;5133650;27;20042;-71
2021/06/21 09:19:55;;;;;;;6.95;3.80;;;;;;;32.51;34.73;99457.81;5134215;27;20043;-71
2021/06/21 09:22:32;;;;;;;7.25;4.00;;;;;;;32.49;34.69;99451.72;5133768;28;20066;-71
2021/06/21 09:25:04;;;;;;;5.88;3.90;;;;;;;32.49;34.81;99448.94;5133927;28;20043;-73
2021/06/21 09:27:35;;;;;;;5.93;4.00;;;;;;;32.25;35.21;99457.44;5134072;28;20058;-70
2021/06/21 09:30:08;;;;;;;5.75;3.63;;;;;;;32.27;35.19;99455.25;5133681;28;20036;-72
2021/06/21 09:32:41;;;;;;;6.60;3.97;;;;;;;32.44;35.42;99455.25;5134394;28;20047;-71
2021/06/21 09:35:12;;;;;;;7.40;3.97;;;;;;;32.57;34.71;99451.28;5133912;28;20039;-72
2021/06/21 09:37:46;;;;;;;6.03;4.18;;;;;;;32.67;34.56;99445.91;5134202;28;20433;-72
2021/06/21 09:40:29;;;;;;;7.90;3.75;;;;;;;32.89;34.12;99449.50;5133602;28;20043;-72
2021/06/21 09:43:17;;;;;;;8.90;4.60;;;;;;;32.99;33.59;99448.81;5136002;27;20104;-72
2021/06/21 09:46:04;;;;;;;6.47;3.90;;;;;;;32.76;33.74;99449.88;5137991;27;20395;-72
2021/06/21 09:48:34;;;;;;;5.88;4.18;;;;;;;32.94;33.76;99441.31;5138159;27;20062;-71
2021/06/21 09:51:18;;;;;;;8.13;4.07;;;;;;;33.18;33.53;99435.47;5119791;27;20040;-76
2021/06/21 09:53:57;;;;;;;7.07;4.22;;;;;;;33.23;33.39;99443.84;5138101;27;20377;-71
2021/06/21 09:56:41;;;;;;;5.68;3.65;;;;;;;33.35;33.10;99440.91;5119207;27;20065;-72
2021/06/21 09:59:23;;;;;;;5.68;4.22;;;;;;;33.29;33.63;99431.72;5137866;27;20039;-72
2021/06/21 10:02:07;;;;;;;6.72;3.92;;;;;;;33.26;33.82;99429.50;5138055;27;20369;-71
2021/06/21 10:04:37;;;;;;;7.80;4.32;;;;;;;33.57;33.01;99425.94;5138054;27;20036;-71
2021/06/21 10:07:06;;;;;;;6.38;4.00;;;;;;;33.70;32.64;99437.69;5137903;27;20393;-72
2021/06/21 10:09:50;;;;;;;6.15;4.18;;;;;;;33.75;31.95;99429.44;5137727;27;20125;-71
2021/06/21 10:12:19;;;;;;;7.65;4.03;;;;;;;33.90;31.62;99439.84;5137562;27;20468;-71
2021/06/21 10:14:49;;;;;;;6.18;4.13;;;;;;;33.97;31.57;99426.59;5137339;27;20053;-72
2021/06/21 10:17:18;;;;;;;7.43;3.90;;;;;;;33.72;32.50;99429.97;5137366;27;20369;-72
2021/06/21 10:19:46;;;;;;;5.90;4.18;;;;;;;33.55;32.62;99430.09;5137541;27;20039;-72
2021/06/21 10:22:15;;;;;;;7.75;4.10;;;;;;;33.55;32.63;99425.38;5137109;27;20047;-72
2021/06/21 10:24:44;;;;;;;5.07;4.00;;;;;;;33.51;32.49;99435.31;5137540;27;20155;-72
2021/06/21 10:27:16;;;;;;;6.10;3.95;;;;;;;33.61;32.17;99431.81;5137267;27;20074;-72
2021/06/21 10:29:44;;;;;;;6.53;4.50;;;;;;;33.86;32.28;99436.72;5137205;27;20502;-71
2021/06/21 10:32:14;;;;;;;5.28;3.88;;;;;;;33.98;31.43;99429.13;5137091;27;20275;-71
2021/06/21 10:34:44;;;;;;;9.80;4.03;;;;;;;34.05;31.98;99417.78;5137404;27;20180;-71
2021/06/21 10:37:17;;;;;;;8.80;4.30;;;;;;;34.33;31.32;99436.81;5136700;27;20075;-71
2021/06/21 10:39:47;;;;;;;6.47;3.55;;;;;;;34.23;31.29;99425.66;5119284;27;20047;-71
2021/06/21 10:42:21;;;;;;;6.32;3.50;;;;;;;34.02;31.74;99429.41;5136767;27;20084;-70
2021/06/21 10:44:54;;;;;;;5.95;3.78;;;;;;;33.92;32.19;99429.34;5136964;27;20088;-71
2021/06/21 10:47:39;;;;;;;7.72;4.28;;;;;;;33.99;31.89;99429.94;5136895;27;20510;-71
2021/06/21 10:50:12;;;;;;;8.63;4.53;;;;;;;34.10;32.02;99421.44;5136406;27;20043;-74
2021/06/21 10:52:47;;;;;;;5.85;4.13;;;;;;;34.50;31.63;99422.81;5136787;27;20185;-71
2021/06/21 10:55:49;;;;;;;4.78;3.80;;;;;;;34.57;31.67;99426.19;5135365;27;20039;-71
2021/06/21 10:58:45;;;;;;;9.73;3.85;;;;;;;34.66;31.06;99421.81;5136181;27;20051;-72
2021/06/21 11:01:23;;;;;;;11.02;4.47;;;;;;;34.58;30.71;99418.72;5136415;27;20043;-72
2021/06/21 11:03:53;;;;;;;5.65;4.10;;;;;;;34.55;30.27;99416.47;5136995;27;20043;-70
2021/06/21 11:06:43;;;;;;;7.32;3.97;;;;;;;34.32;30.91;99418.53;5136521;27;20476;-71
2021/06/21 11:09:12;;;;;;;7.15;3.90;;;;;;;34.54;30.36;99418.41;5130778;27;20143;-72
2021/06/21 11:11:51;;;;;;;6.82;3.75;;;;;;;34.68;30.18;99418.75;5136360;27;20137;-72
2021/06/21 11:14:27;;;;;;;7.97;4.05;;;;;;;34.80;30.60;99415.75;5136465;27;20114;-72
2021/06/21 11:17:23;;;;;;;5.47;3.75;;;;;;;35.13;28.91;99407.03;5136145;27;20039;-71
2021/06/21 11:19:53;;;;;;;6.10;4.20;;;;;;;34.86;29.64;99412.75;5127618;27;20471;-71
2021/06/21 11:22:42;;;;;;;7.15;4.10;;;;;;;35.00;30.02;99410.31;5118036;27;20054;-71
2021/06/21 11:25:22;;;;;;;6.03;3.78;;;;;;;35.19;29.16;99402.31;5136183;27;20047;-72
2021/06/21 11:27:51;;;;;;;7.13;3.80;;;;;;;35.07;29.08;99397.03;5136452;27;20046;-71
2021/06/21 11:30:34;;;;;;;5.80;3.67;;;;;;;34.92;30.04;99400.59;5135653;27;20047;-71
2021/06/21 11:33:10;;;;;;;5.85;4.15;;;;;;;34.80;30.04;99399.97;5136212;27;20051;-71
2021/06/21 11:36:04;;;;;;;5.65;4.13;;;;;;;34.76;30.43;99389.72;5135719;27;20120;-71
2021/06/21 11:38:35;;;;;;;6.55;4.07;;;;;;;34.90;30.38;99390.88;5135902;27;20040;-71
2021/06/21 11:41:22;;;;;;;6.25;4.30;;;;;;;34.57;30.84;99386.59;5136041;27;20047;-71
2021/06/21 11:43:53;;;;;;;8.23;4.32;;;;;;;34.58;30.68;99388.25;5135560;27;20054;-71
2021/06/21 11:46:39;;;;;;;6.97;4.78;;;;;;;34.50;31.26;99386.81;5135748;27;20118;-71
2021/06/21 11:49:09;;;;;;;8.02;4.60;;;;;;;34.35;30.98;99372.88;5135985;27;20035;-71
2021/06/21 11:51:40;;;;;;;7.53;4.13;;;;;;;34.12;31.45;99372.19;5135437;27;20553;-71
2021/06/21 11:54:11;;;;;;;6.70;4.20;;;;;;;33.98;31.68;99379.31;5135840;27;20047;-71